M I D A S
Marine Information and Data Acquisition System
Tripno 1746 of the Zeeleeuw from 2009-08-05 07:12:31 to 2009-08-05 14:17:09
Back to CruiseResearch ActivitiesStationsMapUnderway DataData graphs

EquipmentUnitsComment
TimeDGPSUTC
LatitudeDGPSDM.mWGS84
LongitudeDGPSDM.mWGS84
TemperatureSBE03/SBE38deg celciusITS90
ConductivitySBE21S/mITS90
SalinitySBE21 Practical Salinity Units
ChlorophylAChelsea fluorimeterg/lCalibrated in Aceton
Missing or incorrect values are displayed as -999
Sea surface data collected by the RV Zeeleeuw from 2009-08-05 06:03:10 to 2009-08-05 15:33:31
Time Latitude Longitude Temperature Conductivity Salinity ChlorophylA
2009-08-05 06:04:13 51°13.661 2°55.959 23.174 2.475225 15.776948 39.430158
2009-08-05 06:05:12 51°13.662 2°55.96 23.1733 2.475121 15.777023 39.430158
2009-08-05 06:06:12 51°13.662 2°55.96 23.1736 2.475018 15.776832 39.395334
2009-08-05 06:07:12 51°13.662 2°55.96 23.1747 2.474914 15.776907 39.395334
2009-08-05 06:08:12 51°13.662 2°55.959 23.174 2.474811 15.776982 39.36051
2009-08-05 06:09:12 51°13.662 2°55.959 23.1743 2.474708 15.777057 39.36051
2009-08-05 06:10:12 51°13.662 2°55.959 23.1758 2.474501 15.776144 39.325686
2009-08-05 06:11:12 51°13.662 2°55.959 23.1744 2.474398 15.775954 39.290862
2009-08-05 06:12:12 51°13.662 2°55.959 23.1749 2.474294 15.776029 39.290862
2009-08-05 06:13:12 51°13.662 2°55.959 23.1768 2.474191 15.776103 39.290862
2009-08-05 06:14:12 51°13.662 2°55.959 23.1785 2.474088 15.776444 39.256038
2009-08-05 06:15:12 51°13.662 2°55.96 23.1791 2.473881 15.776062 39.256038
2009-08-05 06:16:12 51°13.662 2°55.96 23.1768 2.473778 15.776403 39.221214
2009-08-05 06:17:12 51°13.662 2°55.961 23.1818 2.473571 15.776022 39.18639
2009-08-05 06:18:12 51°13.662 2°55.961 23.1842 2.473467 15.776096 39.18639
2009-08-05 06:19:12 51°13.663 2°55.961 23.182 2.473261 15.775981 39.18639
2009-08-05 06:20:12 51°13.663 2°55.96 23.1837 2.473054 15.775334 39.151566
2009-08-05 06:21:12 51°13.663 2°55.96 23.1874 2.472951 15.77594 39.151566
2009-08-05 06:22:12 51°13.663 2°55.959 23.1908 2.472744 15.775559 39.116742
2009-08-05 06:23:12 51°13.663 2°55.959 23.1922 2.472537 15.775177 39.116742
2009-08-05 06:24:12 51°13.663 2°55.959 23.1908 2.47233 15.775062 39.081918
2009-08-05 06:25:11 51°13.663 2°55.959 23.1877 2.472227 15.775403 39.047094
2009-08-05 06:26:12 51°13.664 2°55.96 23.1888 2.47202 15.775021 39.047094
2009-08-05 06:27:12 51°13.663 2°55.959 23.1946 2.471814 15.774906 39.01227
2009-08-05 06:28:12 51°13.663 2°55.959 23.1947 2.471607 15.774524 38.977445
2009-08-05 06:29:12 51°13.663 2°55.959 23.1943 2.4714 15.774143 39.01227
2009-08-05 06:30:12 51°13.663 2°55.959 23.1986 2.471193 15.773761 38.977445
2009-08-05 06:31:12 51°13.663 2°55.959 23.1989 2.470987 15.77338 38.942621
2009-08-05 06:32:12 51°13.663 2°55.959 23.2027 2.47078 15.773264 38.942621
2009-08-05 06:33:12 51°13.663 2°55.959 23.2072 2.470573 15.772883 38.942621
2009-08-05 06:34:12 51°13.663 2°55.958 23.2116 2.470367 15.772501 38.907797
2009-08-05 06:35:12 51°13.663 2°55.958 23.2165 2.47016 15.77212 38.907797
2009-08-05 06:36:11 51°13.663 2°55.958 23.2166 2.470057 15.772727 38.872973
2009-08-05 06:37:12 51°13.663 2°55.959 23.2198 2.46985 15.772612 38.838149
2009-08-05 06:38:12 51°13.662 2°55.959 23.2231 2.469643 15.771964 38.838149
2009-08-05 06:39:12 51°13.663 2°55.959 23.2263 2.469436 15.771582 38.803325
2009-08-05 06:40:12 51°13.664 2°55.959 23.1995 2.46923 15.770935 38.803325
2009-08-05 06:41:15 51°13.663 2°55.959 23.2028 2.469126 15.771276 38.768501
2009-08-05 06:42:14 51°13.665 2°55.959 21.6231 4.795386 33.020141 34.763735
2009-08-05 06:43:12 51°13.663 2°55.959 21.0079 4.694538 33.026089 16.864171
2009-08-05 06:44:12 51°13.663 2°55.959 20.8521 4.633163 32.808278 17.665125
2009-08-05 06:45:12 51°13.663 2°55.959 20.7214 4.618108 32.820562 18.431254
2009-08-05 06:46:12 51°13.663 2°55.959 20.4721 4.616759 32.898795 19.058087
2009-08-05 06:47:12 51°13.663 2°55.959 20.1851 4.585714 32.880568 20.03316
2009-08-05 06:48:12 51°13.663 2°55.959 20.0065 4.561524 32.886182 20.834113
2009-08-05 06:49:12 51°13.663 2°55.959 19.8937 4.542732 32.861783 21.356474
2009-08-05 06:50:12 51°13.663 2°55.959 19.8026 4.535154 32.862509 21.669891
2009-08-05 06:51:12 51°13.662 2°55.96 19.7709 4.529029 32.872661 22.087779
2009-08-05 06:52:12 51°13.663 2°55.96 19.6772 4.525812 32.910786 22.644964
2009-08-05 06:53:12 51°13.663 2°55.96 19.6851 4.519998 32.902969 22.888733
2009-08-05 06:54:12 51°13.664 2°55.959 19.6715 4.517506 32.88389 22.958381
2009-08-05 06:55:12 51°13.663 2°55.959 19.6731 4.517506 32.883282 23.167325
2009-08-05 06:56:12 51°13.663 2°55.959 19.6443 4.5146 32.874802 23.341445
2009-08-05 06:57:12 51°13.663 2°55.959 19.6374 4.513458 32.875836 23.515566
2009-08-05 06:58:12 51°13.663 2°55.959 19.6222 4.513458 32.885573 23.654862
2009-08-05 06:59:12 51°13.662 2°55.959 19.6097 4.510863 32.879632 23.794158
2009-08-05 07:00:12 51°13.663 2°55.959 19.6085 4.511797 32.887861 23.863806
2009-08-05 07:01:12 51°13.664 2°55.959 19.6004 4.510655 32.885857 24.003102
2009-08-05 07:02:12 51°13.662 2°55.959 19.602 4.511589 32.894698 24.037926
2009-08-05 07:03:12 51°13.663 2°55.96 19.6001 4.511797 32.897002 24.212047
2009-08-05 07:04:12 51°13.663 2°55.96 19.5911 4.514185 32.921974 24.420991
2009-08-05 07:05:12 51°13.663 2°55.96 19.5867 4.51377 32.921026 24.595111
2009-08-05 07:06:12 51°13.662 2°55.959 19.5868 4.510344 32.903436 24.873704
2009-08-05 07:07:12 51°13.662 2°55.959 19.5821 4.505464 32.86361 24.873704
2009-08-05 07:08:12 51°13.665 2°55.947 19.5875 4.503595 32.847141 24.908528
2009-08-05 07:09:15 51°13.685 2°55.871 19.5854 4.499235 32.808522 25.082648
2009-08-05 07:10:15 51°13.695 2°55.787 19.5746 4.498197 32.804917 26.545258
2009-08-05 07:11:15 51°13.688 2°55.734 19.5809 4.498093 32.807112 26.997971
2009-08-05 07:12:14 51°13.704 2°55.739 19.5717 4.49882 32.816084 27.067619
2009-08-05 07:13:15 51°13.743 2°55.716 19.5781 4.494771 32.781829 27.032795
2009-08-05 07:14:13 51°13.816 2°55.646 19.5793 4.489268 32.733905 26.997971
2009-08-05 07:15:12 51°13.92 2°55.562 19.5763 4.483039 32.680074 27.102443
2009-08-05 07:16:12 51°14.04 2°55.468 19.5622 4.490202 32.740312 27.311387
2009-08-05 07:17:12 51°14.162 2°55.368 19.5656 4.502557 32.85268 27.555156
2009-08-05 07:18:12 51°14.268 2°55.228 19.5513 4.517508 32.980264 27.93822
2009-08-05 07:19:12 51°14.367 2°55.035 19.533 4.534121 33.123391 28.216813
2009-08-05 07:20:12 51°14.486 2°54.816 19.4784 4.555614 33.323937 28.634702
2009-08-05 07:21:12 51°14.646 2°54.683 19.4444 4.580536 33.561789 28.982942
2009-08-05 07:22:12 51°14.821 2°54.619 19.4146 4.605147 33.793998 29.435655
2009-08-05 07:23:12 51°14.998 2°54.556 19.3652 4.623737 33.980406 29.22671
2009-08-05 07:24:12 51°15.17 2°54.494 19.3156 4.634538 34.10435 28.843646
2009-08-05 07:25:12 51°15.344 2°54.436 19.2827 4.64347 34.213802 28.773998
2009-08-05 07:26:12 51°15.519 2°54.384 19.2606 4.648767 34.283836 27.973045
2009-08-05 07:27:12 51°15.665 2°54.367 19.2495 4.654272 34.347987 27.58998
2009-08-05 07:28:12 51°15.787 2°54.369 19.2613 4.658322 34.379562 27.172091
2009-08-05 07:29:12 51°15.878 2°54.454 19.2814 4.663619 34.409849 27.067619
2009-08-05 07:30:12 51°15.906 2°54.633 19.2905 4.668188 34.436687 26.197018
2009-08-05 07:31:12 51°15.907 2°54.897 19.305 4.671512 34.4545 25.953249
2009-08-05 07:32:12 51°15.912 2°55.172 19.3084 4.674316 34.468658 25.918425
2009-08-05 07:33:12 51°15.926 2°55.443 19.3081 4.6712 34.441612 26.022897
2009-08-05 07:34:12 51°15.947 2°55.712 19.3135 4.672239 34.449553 25.988073
2009-08-05 07:35:12 51°15.97 2°55.98 19.3176 4.669123 34.419293 25.988073
2009-08-05 07:36:12 51°16.008 2°56.242 19.3164 4.664657 34.379819 26.022897
2009-08-05 07:37:12 51°16.081 2°56.484 19.3177 4.659256 34.335204 25.988073
2009-08-05 07:38:12 51°16.165 2°56.72 19.3253 4.652921 34.282239 25.883601
2009-08-05 07:39:12 51°16.233 2°56.927 19.3395 4.647832 34.231258 25.709481
2009-08-05 07:40:12 51°16.268 2°57.057 19.3519 4.640562 34.159767 25.883601
2009-08-05 07:41:12 51°16.338 2°57.24 19.3765 4.637861 34.126656 26.022897
2009-08-05 07:42:12 51°16.423 2°57.475 19.4015 4.63111 34.051926 25.709481
2009-08-05 07:43:12 51°16.509 2°57.717 19.4215 4.624567 33.976473 26.022897
2009-08-05 07:44:12 51°16.593 2°57.959 19.4502 4.618959 33.913244 26.162194
2009-08-05 07:45:12 51°16.675 2°58.199 19.4716 4.611274 33.830501 26.022897
2009-08-05 07:46:12 51°16.757 2°58.438 19.4939 4.598189 33.704169 26.231842
2009-08-05 07:47:12 51°16.838 2°58.678 19.5076 4.581782 33.553909 26.405962
2009-08-05 07:48:12 51°16.918 2°58.92 19.5206 4.561533 33.37613 26.64973
2009-08-05 07:49:12 51°16.999 2°59.16 19.5283 4.542739 33.212976 27.032795
2009-08-05 07:50:12 51°17.081 2°59.399 19.5365 4.525503 33.066446 27.172091
2009-08-05 07:51:12 51°17.162 2°59.637 19.5465 4.507957 32.916296 27.241739
2009-08-05 07:52:12 51°17.243 2°59.877 19.5473 4.488127 32.750704 27.520332
2009-08-05 07:53:12 51°17.323 3°0.118 19.5476 4.472969 32.621566 27.694452
2009-08-05 07:54:12 51°17.404 3°0.36 19.5471 4.454594 32.473546 27.973045
2009-08-05 07:55:12 51°17.489 3°0.6 19.5564 4.439022 32.344252 28.460581
2009-08-05 07:56:12 51°17.579 3°0.83 19.5692 4.426462 32.236574 28.773998
2009-08-05 07:57:12 51°17.672 3°1.056 19.5768 4.416808 32.150248 28.739174
2009-08-05 07:58:12 51°17.762 3°1.285 19.5818 4.410683 32.092098 28.739174
2009-08-05 07:59:12 51°17.853 3°1.509 19.5944 4.403313 32.028021 28.913294
2009-08-05 08:00:12 51°17.944 3°1.732 19.6015 4.397812 31.972644 28.843646
2009-08-05 08:01:12 51°18.032 3°1.96 19.6256 4.392414 31.919932 28.739174
2009-08-05 08:02:12 51°18.116 3°2.193 19.639 4.390545 31.885872 28.87847
2009-08-05 08:03:12 51°18.203 3°2.426 19.643 4.386082 31.847301 28.948118
2009-08-05 08:04:12 51°18.29 3°2.658 19.6573 4.384421 31.826764 29.017766
2009-08-05 08:05:12 51°18.376 3°2.894 19.6483 4.384317 31.819449 29.22671
2009-08-05 08:06:12 51°18.467 3°3.127 19.6474 4.381619 31.802272 29.470479
2009-08-05 08:07:12 51°18.573 3°3.342 19.6387 4.380373 31.796287 29.679423
2009-08-05 08:08:12 51°18.676 3°3.546 19.6466 4.37975 31.795353 30.236608
2009-08-05 08:09:12 51°18.776 3°3.748 19.6351 4.380373 31.79864 30.793793
2009-08-05 08:10:12 51°18.877 3°3.95 19.6571 4.380166 31.79578 30.724145
2009-08-05 08:11:12 51°18.975 3°4.145 19.6519 4.380373 31.794523 30.445552
2009-08-05 08:12:12 51°19.078 3°4.23 19.6445 4.380996 31.801338 30.201784
2009-08-05 08:13:12 51°19.183 3°4.184 19.6595 4.383072 31.811702 29.853543
2009-08-05 08:14:12 51°19.32 3°4.107 19.6632 4.386393 31.828633 29.923192
2009-08-05 08:15:12 51°19.421 3°3.922 19.6707 4.38878 31.845046 29.853543
2009-08-05 08:16:12 51°19.446 3°3.637 19.6908 4.391168 31.860868 29.574951
2009-08-05 08:17:12 51°19.415 3°3.322 19.6671 4.395112 31.884599 29.366007
2009-08-05 08:18:12 51°19.335 3°3.022 19.6832 4.395527 31.892678 29.400831
2009-08-05 08:19:12 51°19.257 3°2.718 19.6742 4.396461 31.899662 29.435655
2009-08-05 08:20:12 51°19.171 3°2.418 19.6805 4.396565 31.901683 29.470479
2009-08-05 08:21:12 51°19.088 3°2.117 19.6956 4.39781 31.901172 29.505303
2009-08-05 08:22:12 51°19.006 3°1.815 19.6945 4.396876 31.890066 29.923192
2009-08-05 08:23:12 51°18.923 3°1.514 19.691 4.394281 31.872569 30.201784
2009-08-05 08:24:12 51°18.853 3°1.207 19.6842 4.391686 31.857423 30.201784
2009-08-05 08:25:12 51°18.789 3°0.896 19.6737 4.390441 31.853212 30.271432
2009-08-05 08:26:12 51°18.725 3°0.585 19.6687 4.390649 31.857249 30.306256
2009-08-05 08:27:12 51°18.663 3°0.269 19.6685 4.390026 31.85691 30.201784
2009-08-05 08:28:12 51°18.597 2°59.954 19.6745 4.390026 31.856321 30.097312
2009-08-05 08:29:12 51°18.519 2°59.646 19.6756 4.390649 31.858427 30.132136
2009-08-05 08:30:12 51°18.442 2°59.335 19.6581 4.392621 31.87913 30.132136
2009-08-05 08:31:12 51°18.364 2°59.023 19.653 4.396877 31.918363 30.097312
2009-08-05 08:32:12 51°18.286 2°58.709 19.6382 4.402586 31.972361 30.062488
2009-08-05 08:33:12 51°18.197 2°58.404 19.6458 4.410579 32.045532 29.99284
2009-08-05 08:34:12 51°18.1 2°58.104 19.6468 4.419298 32.115752 29.888367
2009-08-05 08:35:12 51°18.005 2°57.806 19.6543 4.437153 32.256051 29.749071
2009-08-05 08:36:12 51°17.91 2°57.509 19.6381 4.460198 32.44102 29.540127
2009-08-05 08:37:12 51°17.817 2°57.218 19.6295 4.47847 32.593294 29.296359
2009-08-05 08:38:12 51°17.724 2°56.93 19.6208 4.49124 32.70755 29.157062
2009-08-05 08:39:12 51°17.636 2°56.634 19.5932 4.501726 32.803919 28.913294
2009-08-05 08:40:12 51°17.559 2°56.325 19.5673 4.517715 32.955669 28.70435
2009-08-05 08:41:12 51°17.481 2°56.016 19.5487 4.53329 33.09817 28.495405
2009-08-05 08:42:12 51°17.401 2°55.708 19.5366 4.548969 33.240502 28.286461
2009-08-05 08:43:12 51°17.32 2°55.403 19.5411 4.560494 33.344079 28.042693
2009-08-05 08:44:12 51°17.238 2°55.106 19.4892 4.571293 33.434353 27.729276
2009-08-05 08:45:12 51°17.158 2°54.811 19.4288 4.602031 33.733832 27.41586
2009-08-05 08:46:12 51°17.079 2°54.516 19.3752 4.621244 33.936465 27.172091
2009-08-05 08:47:12 51°16.998 2°54.226 19.3231 4.636511 34.10597 26.963147
2009-08-05 08:48:12 51°16.923 2°53.931 19.288 4.647105 34.231016 26.754203
2009-08-05 08:49:12 51°16.886 2°53.625 19.2653 4.656141 34.337079 26.545258
2009-08-05 08:50:12 51°16.903 2°53.32 19.2529 4.661853 34.399111 26.580082
2009-08-05 08:51:12 51°16.98 2°53.067 19.2546 4.666423 34.438202 26.719379
2009-08-05 08:52:12 51°17.142 2°52.97 19.2481 4.67037 34.474084 26.754203
2009-08-05 08:53:12 51°17.313 2°52.998 19.2147 4.671616 34.496029 26.510434
2009-08-05 08:54:12 51°17.48 2°53.08 19.1888 4.671097 34.515016 26.162194
2009-08-05 08:55:12 51°17.638 2°53.197 19.1577 4.669955 34.530162 25.988073
2009-08-05 08:56:12 51°17.788 2°53.336 19.1419 4.668709 34.541227 25.848777
2009-08-05 08:57:12 51°17.915 2°53.523 19.1365 4.667775 34.543857 25.709481
2009-08-05 08:58:12 51°18.011 2°53.752 19.1414 4.666736 34.537836 25.639833
2009-08-05 08:59:12 51°18.1 2°53.984 19.1722 4.664244 34.513264 25.605009
2009-08-05 09:00:12 51°18.19 2°54.212 19.2181 4.654169 34.396754 25.813953
2009-08-05 09:01:12 51°18.281 2°54.439 19.258 4.639213 34.237566 26.057722
2009-08-05 09:02:12 51°18.375 2°54.664 19.2919 4.62405 34.080905 26.336314
2009-08-05 09:03:12 51°18.466 2°54.894 19.3156 4.608784 33.930106 26.545258
2009-08-05 09:04:12 51°18.557 2°55.126 19.3376 4.598918 33.831676 26.719379
2009-08-05 09:05:12 51°18.65 2°55.356 19.3661 4.588222 33.723394 26.928323
2009-08-05 09:06:12 51°18.745 2°55.58 19.3881 4.575761 33.599513 27.172091
2009-08-05 09:07:12 51°18.831 2°55.812 19.4151 4.563819 33.481358 27.485508
2009-08-05 09:08:12 51°18.914 2°56.049 19.4399 4.551982 33.363626 27.694452
2009-08-05 09:09:12 51°18.99 2°56.293 19.4614 4.54056 33.253208 27.973045
2009-08-05 09:10:12 51°19.064 2°56.537 19.4857 4.530799 33.155319 28.216813
2009-08-05 09:11:12 51°19.136 2°56.784 19.5035 4.52052 33.053322 28.390933
2009-08-05 09:12:12 51°19.202 2°57.035 19.5192 4.510656 32.960992 28.599877
2009-08-05 09:13:12 51°19.266 2°57.289 19.5341 4.49882 32.851424 28.773998
2009-08-05 09:14:12 51°19.335 2°57.539 19.5487 4.486154 32.735818 28.87847
2009-08-05 09:15:12 51°19.401 2°57.792 19.5559 4.475668 32.63995 28.948118
2009-08-05 09:16:12 51°19.468 2°58.044 19.5655 4.464352 32.540427 28.982942
2009-08-05 09:17:12 51°19.539 2°58.296 19.5749 4.454386 32.449579 29.087414
2009-08-05 09:18:12 51°19.608 2°58.55 19.5857 4.442967 32.349986 29.157062
2009-08-05 09:19:12 51°19.675 2°58.806 19.5907 4.434973 32.279543 29.261534
2009-08-05 09:20:12 51°19.743 2°59.062 19.598 4.428849 32.224939 29.296359
2009-08-05 09:21:12 51°19.814 2°59.317 19.6079 4.422516 32.165697 29.296359
2009-08-05 09:22:12 51°19.884 2°59.573 19.6179 4.416599 32.11106 29.331183
2009-08-05 09:23:12 51°19.954 2°59.829 19.6226 4.41224 32.069105 29.191886
2009-08-05 09:24:12 51°20.025 3°0.084 19.6289 4.407984 32.030387 29.191886
2009-08-05 09:25:12 51°20.095 3°0.342 19.6314 4.405181 32.004668 29.191886
2009-08-05 09:26:12 51°20.166 3°0.6 19.6352 4.405181 32.000524 29.261534
2009-08-05 09:27:12 51°20.235 3°0.856 19.6496 4.406219 32.006582 29.22671
2009-08-05 09:28:12 51°20.305 3°1.112 19.6516 4.408502 32.01683 29.122238
2009-08-05 09:29:12 51°20.375 3°1.369 19.6452 4.40871 32.018515 28.982942
2009-08-05 09:30:12 51°20.446 3°1.626 19.6554 4.411201 32.033405 28.948118
2009-08-05 09:31:12 51°20.517 3°1.884 19.674 4.416599 32.071879 28.87847
2009-08-05 09:32:12 51°20.589 3°2.143 19.6573 4.422619 32.121936 28.87847
2009-08-05 09:33:12 51°20.661 3°2.402 19.6537 4.427187 32.161991 28.913294
2009-08-05 09:34:12 51°20.734 3°2.661 19.6725 4.432066 32.201018 28.843646
2009-08-05 09:35:12 51°20.791 3°2.931 19.6779 4.436633 32.227392 28.739174
2009-08-05 09:36:12 51°20.826 3°3.212 19.6755 4.438605 32.239238 28.739174
2009-08-05 09:37:12 51°20.845 3°3.5 19.6642 4.439747 32.250298 28.739174
2009-08-05 09:38:12 51°20.854 3°3.789 19.6542 4.439955 32.260331 28.739174
2009-08-05 09:39:12 51°20.862 3°4.077 19.6476 4.441409 32.282282 28.808822
2009-08-05 09:40:12 51°20.879 3°4.36 19.6642 4.445042 32.310613 28.739174
2009-08-05 09:41:12 51°20.899 3°4.646 19.6641 4.448675 32.330576 28.634702
2009-08-05 09:42:12 51°20.922 3°4.933 19.6526 4.449921 32.3401 28.565053
2009-08-05 09:43:12 51°20.945 3°5.22 19.6462 4.448675 32.33775 28.530229
2009-08-05 09:44:12 51°20.969 3°5.507 19.6304 4.445769 32.324289 28.460581
2009-08-05 09:45:12 51°20.993 3°5.798 19.6202 4.442862 32.309628 28.495405
2009-08-05 09:46:12 51°21.019 3°6.088 19.6159 4.439229 32.289052 28.460581
2009-08-05 09:47:12 51°21.04 3°6.376 19.6317 4.436011 32.258706 28.425757
2009-08-05 09:48:12 51°21.057 3°6.664 19.6375 4.430198 32.20311 28.460581
2009-08-05 09:49:12 51°21.067 3°6.954 19.6314 4.424281 32.155632 28.460581
2009-08-05 09:50:12 51°21.068 3°7.246 19.6306 4.41826 32.109103 28.495405
2009-08-05 09:51:12 51°21.036 3°7.532 19.632 4.413485 32.063796 28.599877
2009-08-05 09:52:12 51°20.972 3°7.788 19.6296 4.407672 32.018379 28.599877
2009-08-05 09:53:12 51°20.938 3°7.929 19.6326 4.40352 31.98645 28.599877
2009-08-05 09:54:12 51°20.966 3°7.993 19.6493 4.40134 31.966983 28.599877
2009-08-05 09:55:12 51°21.006 3°7.982 19.6631 4.400613 31.946904 28.530229
2009-08-05 09:56:12 51°21.062 3°7.96 19.6709 4.400302 31.933752 28.495405
2009-08-05 09:57:12 51°21.125 3°7.975 19.6705 4.39833 31.91776 28.460581
2009-08-05 09:58:12 51°21.171 3°8.027 19.8161 4.399783 31.917748 28.843646
2009-08-05 09:59:12 51°21.208 3°8.094 19.7872 4.430194 32.040781 28.565053
2009-08-05 10:00:12 51°21.239 3°8.169 19.7112 4.419608 32.016439 28.495405
2009-08-05 10:01:12 51°21.263 3°8.25 19.6762 4.412134 31.994265 28.425757
2009-08-05 10:02:12 51°21.286 3°8.334 19.6618 4.411201 32.006779 28.460581
2009-08-05 10:03:12 51°21.307 3°8.418 19.6632 4.409125 32.005315 28.495405
2009-08-05 10:04:12 51°21.328 3°8.502 19.6841 4.40518 31.972138 28.565053
2009-08-05 10:05:12 51°21.355 3°8.582 19.7289 4.401339 31.912099 28.356109
2009-08-05 10:06:12 51°21.383 3°8.661 19.7114 4.400093 31.88847 28.460581
2009-08-05 10:07:12 51°21.412 3°8.741 19.7126 4.399574 31.888385 28.460581
2009-08-05 10:08:12 51°21.443 3°8.821 19.697 4.401028 31.903098 28.495405
2009-08-05 10:09:12 51°21.474 3°8.901 19.6857 4.39999 31.901166 28.530229
2009-08-05 10:10:12 51°21.505 3°8.981 19.7029 4.399886 31.910927 28.495405
2009-08-05 10:11:12 51°21.536 3°9.063 19.7281 4.396253 31.853845 28.530229
2009-08-05 10:12:12 51°21.568 3°9.145 19.7019 4.393554 31.833758 28.634702
2009-08-05 10:13:12 51°21.6 3°9.228 19.7161 4.392101 31.831977 28.634702
2009-08-05 10:14:12 51°21.633 3°9.313 19.7306 4.392101 31.816126 28.599877
2009-08-05 10:15:12 51°21.667 3°9.399 19.7349 4.392308 31.809593 28.599877
2009-08-05 10:16:12 51°21.701 3°9.485 19.7472 4.391063 31.80186 28.634702
2009-08-05 10:17:12 51°21.728 3°9.567 19.7159 4.390336 31.788948 28.634702
2009-08-05 10:18:12 51°21.748 3°9.639 19.7438 4.388779 31.796281 28.669526
2009-08-05 10:19:12 51°21.756 3°9.708 19.753 4.387845 31.765868 28.425757
2009-08-05 10:20:12 51°21.722 3°9.763 19.762 4.388883 31.768994 28.425757
2009-08-05 10:21:12 51°21.67 3°9.71 19.8107 4.388052 31.748239 28.425757
2009-08-05 10:22:12 51°21.657 3°9.653 19.8045 4.390231 31.740142 28.356109
2009-08-05 10:23:12 51°21.659 3°9.618 19.7969 4.388778 31.731324 28.425757
2009-08-05 10:24:12 51°21.663 3°9.595 19.805 4.389193 31.731174 28.321285
2009-08-05 10:25:12 51°21.667 3°9.582 19.7633 4.390646 31.745248 28.286461
2009-08-05 10:26:12 51°21.673 3°9.575 19.7702 4.389609 31.769016 28.356109
2009-08-05 10:27:12 51°21.679 3°9.573 19.7322 4.388675 31.760878 28.425757
2009-08-05 10:28:12 51°21.683 3°9.548 19.7825 4.388883 31.780707 28.286461
2009-08-05 10:29:12 51°21.68 3°9.483 19.8077 4.390024 31.748395 28.390933
2009-08-05 10:30:12 51°21.676 3°9.387 19.8017 4.392826 31.762272 28.530229
2009-08-05 10:31:12 51°21.671 3°9.287 19.8234 4.395837 31.802391 28.530229
2009-08-05 10:32:12 51°21.654 3°9.201 19.8676 4.398223 31.778985 28.286461
2009-08-05 10:33:12 51°21.628 3°9.126 19.8789 4.409433 31.847848 28.112341
2009-08-05 10:34:12 51°21.592 3°9.068 19.8788 4.410679 31.842111 27.93822
2009-08-05 10:35:12 51°21.548 3°9.018 19.7483 4.413689 31.896846 27.973045
2009-08-05 10:36:12 51°21.505 3°8.967 19.7263 4.409539 31.939642 28.112341
2009-08-05 10:37:12 51°21.465 3°8.911 19.7789 4.409643 31.949904 28.251637
2009-08-05 10:38:12 51°21.425 3°8.856 19.7747 4.411199 31.914856 28.286461
2009-08-05 10:39:12 51°21.385 3°8.799 19.7832 4.412341 31.948198 28.356109
2009-08-05 10:40:12 51°21.346 3°8.744 19.8006 4.410991 31.916115 28.216813
2009-08-05 10:41:12 51°21.307 3°8.69 19.7704 4.416493 31.951782 28.042693
2009-08-05 10:42:12 51°21.27 3°8.635 19.7359 4.41722 31.984143 28.042693
2009-08-05 10:43:12 51°21.234 3°8.579 19.7744 4.415144 31.982072 28.147165
2009-08-05 10:44:12 51°21.2 3°8.523 19.77 4.415144 31.965577 28.112341
2009-08-05 10:45:12 51°21.165 3°8.468 19.7549 4.412549 31.945758 28.216813
2009-08-05 10:46:12 51°21.136 3°8.408 19.6916 4.409435 31.941745 28.286461
2009-08-05 10:47:12 51°21.115 3°8.34 19.7028 4.405595 31.941865 28.286461
2009-08-05 10:48:12 51°21.111 3°8.265 19.73 4.404661 31.928993 28.251637
2009-08-05 10:49:12 51°21.132 3°8.198 19.7499 4.405802 31.913514 28.251637
2009-08-05 10:50:12 51°21.164 3°8.166 19.7233 4.40684 31.917209 28.077517
2009-08-05 10:51:12 51°21.195 3°8.156 19.6911 4.407774 31.945379 28.147165
2009-08-05 10:52:12 51°21.224 3°8.155 19.7623 4.409643 31.971717 28.112341
2009-08-05 10:53:12 51°21.248 3°8.16 19.7755 4.414313 31.955327 27.93822
2009-08-05 10:54:12 51°21.268 3°8.17 19.7519 4.416701 31.978765 27.93822
2009-08-05 10:55:12 51°21.286 3°8.182 19.6851 4.416805 32.003185 28.007869
2009-08-05 10:56:12 51°21.302 3°8.199 19.6631 4.41556 32.032077 28.042693
2009-08-05 10:57:12 51°21.318 3°8.219 19.6378 4.415976 32.059714 28.112341
2009-08-05 10:58:12 51°21.332 3°8.238 19.6199 4.416391 32.076717 28.147165
2009-08-05 10:59:12 51°21.359 3°8.187 19.7164 4.416184 32.073253 28.077517
2009-08-05 11:00:12 51°21.347 3°8.044 19.8052 4.418881 32.017636 28.321285
2009-08-05 11:01:12 51°21.314 3°7.87 19.6941 4.423656 32.0321 28.425757
2009-08-05 11:02:12 51°21.324 3°7.71 19.7941 4.418362 32.03824 28.495405
2009-08-05 11:03:12 51°21.4 3°7.67 19.7109 4.423032 32.010553 27.973045
2009-08-05 11:04:12 51°21.462 3°7.659 19.7386 4.424072 32.081554 28.181989
2009-08-05 11:05:12 51°21.516 3°7.668 19.7202 4.425421 32.072966 27.93822
2009-08-05 11:06:12 51°21.574 3°7.713 19.7631 4.427081 32.07223 27.93822
2009-08-05 11:07:12 51°21.628 3°7.784 19.7778 4.429261 32.087518 27.93822
2009-08-05 11:08:12 51°21.664 3°7.86 19.7271 4.433206 32.10763 27.93822
2009-08-05 11:09:12 51°21.69 3°7.931 19.6974 4.437982 32.186013 27.903396
2009-08-05 11:10:12 51°21.713 3°7.997 19.696 4.43902 32.21166 27.7641
2009-08-05 11:11:12 51°21.736 3°8.061 19.7065 4.439747 32.213988 27.694452
2009-08-05 11:12:12 51°21.76 3°8.125 19.7355 4.439746 32.203885 27.659628
2009-08-05 11:13:12 51°21.787 3°8.194 19.7807 4.439954 32.180043 27.624804
2009-08-05 11:14:12 51°21.816 3°8.267 19.8156 4.44151 32.163025 27.624804
2009-08-05 11:15:12 51°21.846 3°8.341 19.9344 4.443586 32.141967 27.450684
2009-08-05 11:16:12 51°21.881 3°8.413 19.9634 4.449294 32.11083 27.381036
2009-08-05 11:17:12 51°21.918 3°8.486 19.9046 4.453238 32.140891 27.624804
2009-08-05 11:18:12 51°21.954 3°8.561 19.8849 4.454485 32.18339 27.7641
2009-08-05 11:19:12 51°21.988 3°8.64 19.9251 4.456665 32.203364 27.798924
2009-08-05 11:20:12 51°22.02 3°8.722 19.972 4.461128 32.214008 27.833748
2009-08-05 11:21:12 51°22.05 3°8.807 20.0332 4.465695 32.205425 27.450684
2009-08-05 11:22:12 51°22.078 3°8.893 20.0265 4.472131 32.226658 27.172091
2009-08-05 11:23:12 51°22.104 3°8.979 19.954 4.475557 32.262522 27.137267
2009-08-05 11:24:12 51°22.128 3°9.062 19.8428 4.469849 32.306343 27.659628
2009-08-05 11:25:12 51°22.144 3°9.143 19.8804 4.465697 32.298868 27.450684
2009-08-05 11:26:12 51°22.155 3°9.225 19.7225 4.467151 32.325469 27.7641
2009-08-05 11:27:12 51°22.147 3°9.318 19.688 4.456979 32.339487 28.286461
2009-08-05 11:28:12 51°22.138 3°9.387 19.9038 4.454591 32.299265 27.868572
2009-08-05 11:29:12 51°22.133 3°9.441 20.0146 4.467876 32.251344 27.555156
2009-08-05 11:30:12 51°22.132 3°9.485 19.9906 4.470886 32.240201 27.798924
2009-08-05 11:31:12 51°22.136 3°9.519 19.947 4.468083 32.23412 27.729276
2009-08-05 11:32:12 51°22.164 3°9.501 19.9417 4.462996 32.198987 27.868572
2009-08-05 11:33:12 51°22.226 3°9.44 19.9659 4.461543 32.201419 28.216813
2009-08-05 11:34:12 51°22.313 3°9.265 19.9268 4.46746 32.216117 28.112341
2009-08-05 11:35:12 51°22.411 3°9.048 19.779 4.470473 32.345216 28.773998
2009-08-05 11:36:12 51°22.513 3°8.831 19.7938 4.470681 32.40049 28.739174
2009-08-05 11:37:12 51°22.613 3°8.613 19.7132 4.477325 32.438217 28.565053
2009-08-05 11:38:12 51°22.715 3°8.397 19.8527 4.477949 32.482123 28.669526
2009-08-05 11:39:12 51°22.814 3°8.179 19.8472 4.492171 32.526214 28.599877
2009-08-05 11:40:12 51°22.91 3°7.963 19.6844 4.502033 32.571381 28.356109
2009-08-05 11:41:12 51°23.006 3°7.749 19.5676 4.491862 32.668483 28.460581
2009-08-05 11:42:12 51°23.101 3°7.533 19.5643 4.482 32.65224 28.425757
2009-08-05 11:43:12 51°23.198 3°7.316 19.6047 4.480755 32.642089 28.321285
2009-08-05 11:44:12 51°23.296 3°7.098 19.5945 4.486256 32.662121 28.147165
2009-08-05 11:45:12 51°23.371 3°6.866 19.6215 4.488748 32.673342 28.007869
2009-08-05 11:46:12 51°23.436 3°6.628 19.5802 4.493524 32.734641 28.286461
2009-08-05 11:47:12 51°23.502 3°6.392 19.7044 4.49207 32.711288 28.356109
2009-08-05 11:48:12 51°23.569 3°6.156 19.7423 4.499025 32.687504 28.251637
2009-08-05 11:49:12 51°23.634 3°5.918 19.7429 4.508057 32.73133 28.181989
2009-08-05 11:50:12 51°23.699 3°5.679 19.7106 4.513664 32.782314 28.181989
2009-08-05 11:51:12 51°23.764 3°5.438 19.651 4.518648 32.859781 28.216813
2009-08-05 11:52:12 51°23.814 3°5.188 19.5825 4.520933 32.91484 28.181989
2009-08-05 11:53:12 51°23.861 3°4.935 19.5438 4.523633 32.999087 28.321285
2009-08-05 11:54:12 51°23.907 3°4.681 19.634 4.523114 33.001577 28.321285
2009-08-05 11:55:12 51°23.952 3°4.43 19.6718 4.531315 32.991509 28.216813
2009-08-05 11:56:12 51°24 3°4.18 19.6081 4.537649 33.03579 28.286461
2009-08-05 11:57:12 51°24.049 3°3.931 19.5923 4.540349 33.112265 28.425757
2009-08-05 11:58:12 51°24.101 3°3.685 19.5761 4.542322 33.13205 28.495405
2009-08-05 11:59:12 51°24.215 3°3.488 19.6622 4.538169 33.09263 28.565053
2009-08-05 12:00:12 51°24.353 3°3.308 19.4742 4.55094 33.167402 28.390933
2009-08-05 12:01:12 51°24.489 3°3.124 19.4418 4.560079 33.354305 28.460581
2009-08-05 12:02:12 51°24.624 3°2.937 19.4604 4.56143 33.410054 28.530229
2009-08-05 12:03:12 51°24.762 3°2.75 19.474 4.568075 33.448996 28.565053
2009-08-05 12:04:12 51°24.902 3°2.562 19.7067 4.576485 33.467552 28.181989
2009-08-05 12:05:12 51°25.042 3°2.373 19.4037 4.594241 33.549478 28.321285
2009-08-05 12:06:12 51°25.181 3°2.183 19.3807 4.586456 33.651062 28.251637
2009-08-05 12:07:12 51°25.32 3°1.993 19.4244 4.58739 33.651844 27.93822
2009-08-05 12:08:12 51°25.458 3°1.802 19.3999 4.586559 33.619968 27.833748
2009-08-05 12:09:12 51°25.596 3°1.609 19.3586 4.588429 33.66602 28.007869
2009-08-05 12:10:12 51°25.736 3°1.417 19.3237 4.589364 33.701962 28.042693
2009-08-05 12:11:12 51°25.877 3°1.226 19.2928 4.589157 33.730457 28.251637
2009-08-05 12:12:12 51°26.019 3°1.033 19.2981 4.587703 33.7355 28.286461
2009-08-05 12:13:12 51°26.156 3°0.831 19.3014 4.587288 33.727668 28.216813
2009-08-05 12:14:12 51°26.294 3°0.627 19.3033 4.587703 33.729828 28.077517
2009-08-05 12:15:12 51°26.437 3°0.425 19.3125 4.588326 33.733068 28.147165
2009-08-05 12:16:12 51°26.584 3°0.221 19.3393 4.588534 33.72281 28.112341
2009-08-05 12:17:12 51°26.731 3°0.012 19.3964 4.588429 33.691134 28.077517
2009-08-05 12:18:12 51°26.878 2°59.801 19.4212 4.589155 33.661331 28.042693
2009-08-05 12:19:12 51°27.031 2°59.596 19.4753 4.589363 33.641733 28.216813
2009-08-05 12:20:12 51°27.185 2°59.391 19.5804 4.592062 33.617603 28.251637
2009-08-05 12:21:12 51°27.325 2°59.169 19.6472 4.599017 33.574864 27.868572
2009-08-05 12:22:12 51°27.474 2°58.969 19.4549 4.629653 33.840519 27.7641
2009-08-05 12:23:12 51°27.624 2°58.778 19.1744 4.628929 34.026339 27.450684
2009-08-05 12:24:12 51°27.772 2°58.585 19.1055 4.625401 34.152161 27.241739
2009-08-05 12:25:12 51°27.927 2°58.402 19.0875 4.623429 34.183296 27.172091
2009-08-05 12:26:12 51°28.104 2°58.263 19.1781 4.621352 34.171226 27.172091
2009-08-05 12:27:12 51°28.289 2°58.134 19.318 4.616366 34.039753 27.206915
2009-08-05 12:28:12 51°28.476 2°58.004 19.3998 4.622802 33.979683 27.172091
2009-08-05 12:29:12 51°28.661 2°57.873 19.1972 4.626748 33.965927 26.997971
2009-08-05 12:30:12 51°28.725 2°57.643 19.1963 4.624466 34.123305 26.789027
2009-08-05 12:31:12 51°28.707 2°57.377 19.2446 4.621351 34.091157 26.997971
2009-08-05 12:32:12 51°28.686 2°57.109 19.2584 4.622492 34.062303 27.137267
2009-08-05 12:33:12 51°28.608 2°56.887 19.3828 4.621453 34.016809 26.963147
2009-08-05 12:34:12 51°28.505 2°56.689 19.3044 4.632253 34.0499 27.067619
2009-08-05 12:35:12 51°28.408 2°56.48 19.2499 4.634226 34.103692 27.032795
2009-08-05 12:36:12 51°28.31 2°56.273 19.2036 4.629035 34.129742 27.102443
2009-08-05 12:37:12 51°28.216 2°56.061 19.1602 4.633605 34.197597 27.102443
2009-08-05 12:38:12 51°28.122 2°55.848 19.203 4.636306 34.237902 27.102443
2009-08-05 12:39:12 51°28.031 2°55.633 19.2312 4.641705 34.251762 27.102443
2009-08-05 12:40:12 51°27.939 2°55.42 19.2721 4.646275 34.263235 27.067619
2009-08-05 12:41:12 51°27.849 2°55.207 19.3093 4.649909 34.253526 27.067619
2009-08-05 12:42:12 51°27.758 2°54.995 19.3108 4.651882 34.264693 27.032795
2009-08-05 12:43:12 51°27.662 2°54.79 19.4922 4.648351 34.222752 27.137267
2009-08-05 12:44:12 51°27.564 2°54.589 19.4497 4.65001 34.109066 27.206915
2009-08-05 12:45:12 51°27.463 2°54.391 19.5575 4.64679 34.085771 27.172091
2009-08-05 12:46:12 51°27.362 2°54.198 19.5145 4.642531 33.978744 27.276563
2009-08-05 12:47:12 51°27.264 2°54.003 19.363 4.638274 34.006925 27.276563
2009-08-05 12:48:12 51°27.166 2°53.806 19.3974 4.636199 34.086858 27.102443
2009-08-05 12:49:12 51°27.058 2°53.623 19.3856 4.63381 34.039239 27.137267
2009-08-05 12:50:12 51°26.952 2°53.435 19.356 4.634849 34.058579 27.102443
2009-08-05 12:51:12 51°26.855 2°53.232 19.3726 4.636407 34.093022 26.997971
2009-08-05 12:52:12 51°26.766 2°53.018 19.3368 4.637861 34.099276 26.893499
2009-08-05 12:53:12 51°26.679 2°52.803 19.3352 4.63838 34.113101 26.789027
2009-08-05 12:54:12 51°26.592 2°52.589 19.3502 4.640977 34.141509 26.754203
2009-08-05 12:55:12 51°26.504 2°52.374 19.402 4.64565 34.15836 26.754203
2009-08-05 12:56:12 51°26.414 2°52.163 19.4105 4.651776 34.177618 26.64973
2009-08-05 12:57:12 51°26.324 2°51.953 19.4483 4.657592 34.211489 26.510434
2009-08-05 12:58:12 51°26.252 2°51.723 19.5041 4.66642 34.260568 26.405962
2009-08-05 12:59:12 51°26.174 2°51.497 19.5313 4.67317 34.266395 26.336314
2009-08-05 13:00:12 51°26.089 2°51.278 19.4279 4.682309 34.330688 26.231842
2009-08-05 13:01:12 51°26.009 2°51.058 19.2595 4.676806 34.369726 26.197018
2009-08-05 13:02:12 51°25.936 2°50.829 19.0408 4.667774 34.493308 25.953249
2009-08-05 13:03:12 51°25.874 2°50.592 19.0105 4.65739 34.524536 25.848777
2009-08-05 13:04:12 51°25.814 2°50.353 19.0387 4.656144 34.51028 25.813953
2009-08-05 13:05:12 51°25.752 2°50.114 19.0176 4.657286 34.523673 25.779129
2009-08-05 13:06:12 51°25.691 2°49.877 18.9984 4.656767 34.529113 25.779129
2009-08-05 13:07:12 51°25.63 2°49.639 19.013 4.656767 34.538874 25.709481
2009-08-05 13:08:12 51°25.565 2°49.404 18.9892 4.657079 34.547976 25.709481
2009-08-05 13:09:12 51°25.502 2°49.169 18.9983 4.656145 34.551276 25.779129
2009-08-05 13:10:12 51°25.442 2°48.931 18.989 4.657183 34.559264 25.779129
2009-08-05 13:11:12 51°25.384 2°48.69 19.0476 4.658014 34.557053 25.779129
2009-08-05 13:12:12 51°25.323 2°48.45 19.0649 4.663518 34.563094 25.848777
2009-08-05 13:13:12 51°25.262 2°48.21 18.9817 4.666529 34.579658 25.883601
2009-08-05 13:14:12 51°25.203 2°47.967 18.9465 4.660195 34.595413 25.883601
2009-08-05 13:15:12 51°25.141 2°47.724 18.9275 4.657911 34.599246 25.918425
2009-08-05 13:16:12 51°25.078 2°47.482 18.8768 4.655834 34.60678 25.883601
2009-08-05 13:17:13 51°25.011 2°47.236 18.8169 4.651992 34.614667 25.848777
2009-08-05 13:18:12 51°24.947 2°46.995 18.7769 4.646904 34.620052 25.813953
2009-08-05 13:19:12 51°24.882 2°46.752 18.7557 4.643581 34.619203 25.813953
2009-08-05 13:20:12 51°24.819 2°46.504 18.7096 4.641504 34.621551 25.779129
2009-08-05 13:21:12 51°24.757 2°46.256 18.6887 4.63704 34.623657 25.813953
2009-08-05 13:22:12 51°24.695 2°46.008 18.6732 4.635378 34.621598 25.813953
2009-08-05 13:23:12 51°24.632 2°45.763 18.6573 4.633924 34.621277 25.813953
2009-08-05 13:24:12 51°24.572 2°45.516 18.6302 4.631744 34.622777 25.848777
2009-08-05 13:25:12 51°24.517 2°45.261 18.6103 4.629044 34.621907 25.918425
2009-08-05 13:26:12 51°24.465 2°45.003 18.6064 4.627486 34.620062 25.918425
2009-08-05 13:27:12 51°24.404 2°44.753 18.6003 4.626967 34.620987 25.883601
2009-08-05 13:28:12 51°24.335 2°44.507 18.5923 4.626656 34.621674 25.883601
2009-08-05 13:29:12 51°24.258 2°44.273 18.5981 4.625929 34.622178 25.883601
2009-08-05 13:30:12 51°24.171 2°44.053 18.593 4.626033 34.621068 25.883601
2009-08-05 13:31:12 51°24.07 2°43.838 18.5781 4.625306 34.620912 25.883601
2009-08-05 13:32:12 51°23.985 2°43.633 18.5805 4.624371 34.619013 25.918425
2009-08-05 13:33:12 51°24.018 2°43.537 18.5718 4.623645 34.619518 25.883601
2009-08-05 13:34:12 51°24.099 2°43.591 18.5797 4.623748 34.617087 25.883601
2009-08-05 13:35:12 51°24.206 2°43.776 18.5866 4.624268 34.618142 25.848777
2009-08-05 13:36:12 51°24.303 2°44.07 18.5765 4.624371 34.619674 25.918425
2009-08-05 13:37:12 51°24.386 2°44.392 18.5868 4.624164 34.619252 25.883601
2009-08-05 13:38:12 51°24.471 2°44.712 18.5862 4.624891 34.620729 25.883601
2009-08-05 13:39:12 51°24.556 2°45.03 18.5912 4.625202 34.621362 25.918425
2009-08-05 13:40:12 51°24.632 2°45.354 18.5997 4.625825 34.620646 25.918425
2009-08-05 13:41:12 51°24.694 2°45.653 18.6095 4.626448 34.619272 25.918425
2009-08-05 13:42:12 51°24.728 2°45.827 18.6081 4.627279 34.61898 25.953249
2009-08-05 13:43:12 51°24.745 2°45.948 18.6078 4.62676 34.619245 25.988073
2009-08-05 13:44:12 51°24.75 2°46.045 18.61 4.626863 34.618796 26.022897
2009-08-05 13:45:12 51°24.749 2°46.147 18.6252 4.627175 34.618769 26.057722
2009-08-05 13:46:12 51°24.75 2°46.246 18.6243 4.628109 34.618689 25.988073
2009-08-05 13:47:12 51°24.758 2°46.343 18.6412 4.628421 34.618662 26.022897
2009-08-05 13:48:12 51°24.768 2°46.437 18.6381 4.629771 34.618108 26.057722
2009-08-05 13:49:12 51°24.783 2°46.527 18.643 4.629979 34.61919 26.057722
2009-08-05 13:50:12 51°24.806 2°46.614 18.6685 4.630186 34.618952 26.057722
2009-08-05 13:51:12 51°24.834 2°46.7 18.6658 4.632574 34.618534 26.057722
2009-08-05 13:52:12 51°24.869 2°46.782 18.6702 4.632574 34.619852 26.057722
2009-08-05 13:53:12 51°24.906 2°46.861 18.674 4.633094 34.619589 26.092546
2009-08-05 13:54:12 51°24.942 2°46.94 18.6791 4.633301 34.620011 26.092546
2009-08-05 13:55:12 51°24.977 2°47.02 18.681 4.63382 34.619749 26.162194
2009-08-05 13:56:12 51°25.015 2°47.099 18.6935 4.634236 34.619276 26.092546
2009-08-05 13:57:12 51°25.053 2°47.178 18.7084 4.635274 34.618753 26.12737
2009-08-05 13:58:12 51°25.09 2°47.26 18.7054 4.636624 34.619522 26.12737
2009-08-05 13:59:12 51°25.125 2°47.335 18.712 4.636624 34.619522 26.12737
2009-08-05 14:00:12 51°25.157 2°47.402 18.7274 4.636936 34.619497 26.162194
2009-08-05 14:01:12 51°25.189 2°47.464 18.7251 4.638493 34.617401 26.197018
2009-08-05 14:02:12 51°25.221 2°47.528 18.7272 4.638285 34.618952 26.197018
2009-08-05 14:03:12 51°25.253 2°47.595 18.7291 4.638389 34.618505 26.231842
2009-08-05 14:04:12 51°25.286 2°47.662 18.7324 4.638701 34.618481 26.197018
2009-08-05 14:05:12 51°25.317 2°47.731 18.7423 4.638908 34.617588 26.197018
2009-08-05 14:06:12 51°25.344 2°47.802 18.7511 4.640051 34.615966 26.231842
2009-08-05 14:07:12 51°25.366 2°47.875 18.7508 4.640258 34.61836 26.197018
2009-08-05 14:08:12 51°25.386 2°47.95 18.76 4.640466 34.616811 26.231842
2009-08-05 14:09:13 51°25.396 2°48.021 18.7743 4.641504 34.615637 26.266666
2009-08-05 14:10:12 51°25.389 2°48.075 18.7844 4.642335 34.615355 26.336314
2009-08-05 14:11:12 51°25.376 2°48.109 18.808 4.64327 34.615286 26.30149
2009-08-05 14:12:12 51°25.371 2°48.132 18.8121 4.645658 34.611611 26.30149
2009-08-05 14:13:12 51°25.373 2°48.156 18.8245 4.645866 34.61269 26.336314
2009-08-05 14:14:12 51°25.377 2°48.183 18.8283 4.646904 34.611523 26.371138
2009-08-05 14:15:12 51°25.386 2°48.21 18.8295 4.647423 34.611924 26.405962
2009-08-05 14:16:12 51°25.393 2°48.237 18.8353 4.647423 34.611924 26.440786
2009-08-05 14:17:12 51°25.351 2°48.297 18.8461 4.64815 34.610125 26.405962
2009-08-05 14:18:12 51°25.245 2°48.398 18.8871 4.6495 34.605009 26.231842
2009-08-05 14:19:12 51°25.101 2°48.481 18.9208 4.652303 34.595009 26.266666
2009-08-05 14:20:12 51°24.938 2°48.59 18.9363 4.653965 34.587281 26.231842
2009-08-05 14:21:12 51°24.78 2°48.741 18.9471 4.656042 34.590863 26.162194
2009-08-05 14:22:13 51°24.61 2°48.861 18.9587 4.657599 34.594692 26.12737
2009-08-05 14:23:12 51°24.441 2°48.961 18.9487 4.658118 34.592485 26.092546
2009-08-05 14:24:12 51°24.27 2°49.059 18.9304 4.658015 34.598804 26.057722
2009-08-05 14:25:12 51°24.099 2°49.162 18.9001 4.656976 34.60976 26.022897
2009-08-05 14:26:12 51°23.929 2°49.265 18.8662 4.654588 34.617985 26.057722
2009-08-05 14:27:13 51°23.755 2°49.367 18.8375 4.652304 34.621853 26.12737
2009-08-05 14:28:12 51°23.588 2°49.467 18.8044 4.648877 34.620784 26.266666
2009-08-05 14:29:12 51°23.418 2°49.57 18.7816 4.645969 34.617495 26.30149
2009-08-05 14:30:12 51°23.247 2°49.671 18.7791 4.643581 34.61395 26.336314
2009-08-05 14:31:12 51°23.078 2°49.766 18.778 4.643166 34.611791 26.405962
2009-08-05 14:32:12 51°22.904 2°49.8 18.7745 4.64275 34.608976 26.440786
2009-08-05 14:33:12 51°22.727 2°49.807 18.7728 4.642023 34.608154 26.440786
2009-08-05 14:34:12 51°22.548 2°49.816 18.7877 4.642127 34.606395 26.371138
2009-08-05 14:35:12 51°22.368 2°49.832 18.8103 4.643269 34.606095 26.336314
2009-08-05 14:36:12 51°22.186 2°49.848 18.8349 4.646592 34.610233 26.30149
2009-08-05 14:37:12 51°22.004 2°49.869 18.8757 4.649188 34.614205 26.162194
2009-08-05 14:38:12 51°21.822 2°49.881 18.9693 4.655315 34.61161 26.197018
2009-08-05 14:39:13 51°21.641 2°49.944 19.0292 4.663519 34.614585 26.197018
2009-08-05 14:40:12 51°21.467 2°50.021 19.0531 4.669022 34.616657 26.231842
2009-08-05 14:41:12 51°21.29 2°50.101 19.0446 4.67058 34.619176 26.30149
2009-08-05 14:42:12 51°21.117 2°50.192 19.0471 4.669853 34.619652 26.336314
2009-08-05 14:43:13 51°20.946 2°50.306 19.0712 4.670476 34.616358 26.336314
2009-08-05 14:44:12 51°20.781 2°50.415 19.1145 4.672761 34.614496 26.371138
2009-08-05 14:45:13 51°20.609 2°50.521 19.2031 4.67733 34.60819 26.440786
2009-08-05 14:46:13 51°20.438 2°50.619 19.2278 4.684599 34.603532 26.440786
2009-08-05 14:47:12 51°20.268 2°50.71 19.2413 4.68491 34.592499 26.47561
2009-08-05 14:48:12 51°20.095 2°50.802 19.2364 4.685014 34.58429 26.545258
2009-08-05 14:49:12 51°19.921 2°50.892 19.2444 4.684806 34.581923 26.684555
2009-08-05 14:50:12 51°19.746 2°50.98 19.2188 4.685222 34.586657 26.684555
2009-08-05 14:51:12 51°19.571 2°51.069 19.1853 4.682626 34.583947 26.684555
2009-08-05 14:52:12 51°19.397 2°51.16 19.1424 4.678679 34.581075 26.64973
2009-08-05 14:53:12 51°19.226 2°51.259 19.1368 4.674941 34.583177 26.684555
2009-08-05 14:54:12 51°19.054 2°51.347 19.1333 4.675149 34.5849 26.614906
2009-08-05 14:55:12 51°18.88 2°51.422 19.1495 4.676187 34.592865 26.614906
2009-08-05 14:56:12 51°18.705 2°51.487 19.1808 4.679822 34.604824 26.789027
2009-08-05 14:57:12 51°18.528 2°51.548 19.1639 4.68273 34.612049 26.893499
2009-08-05 14:58:12 51°18.352 2°51.611 19.1205 4.67816 34.59689 26.719379
2009-08-05 14:59:12 51°18.177 2°51.676 19.1364 4.670891 34.562565 26.684555
2009-08-05 15:00:12 51°18.014 2°51.796 19.4242 2.382636 16.412522 44.061757
2009-08-05 15:01:13 51°17.847 2°51.92 19.585 2.358761 16.232322 42.947388
2009-08-05 15:02:13 51°17.68 2°52.03 19.7751 2.350699 16.171328 42.703619
2009-08-05 15:03:12 51°17.513 2°52.135 19.9729 2.345945 16.133746 42.599147
2009-08-05 15:04:13 51°17.341 2°52.246 20.1629 2.344498 16.12136 42.529499
2009-08-05 15:05:12 51°17.175 2°52.353 20.3427 2.342845 16.104128 42.425027
2009-08-05 15:06:12 51°17.011 2°52.482 20.5264 2.339331 16.070534 42.390203
2009-08-05 15:07:12 51°16.849 2°52.62 20.695 2.340364 16.071134 42.355379
2009-08-05 15:08:12 51°16.689 2°52.76 20.8651 2.341914 16.075915 42.355379
2009-08-05 15:09:12 51°16.524 2°52.897 20.5375 2.345944 16.09603 42.355379
2009-08-05 15:10:12 51°16.362 2°53.033 20.7086 2.341397 16.061898 42.320555
2009-08-05 15:11:13 51°16.199 2°53.174 20.8477 2.343257 16.070495 42.355379
2009-08-05 15:12:12 51°16.04 2°53.307 21.0082 2.341603 16.051541 42.355379
2009-08-05 15:13:12 51°15.878 2°53.44 21.095 2.34057 16.037847 42.355379
2009-08-05 15:14:12 51°15.717 2°53.575 21.117 2.3415 16.039175 42.320555
2009-08-05 15:15:12 51°15.555 2°53.711 21.229 2.338606 16.012155 42.355379
2009-08-05 15:16:12 51°15.394 2°53.847 21.3305 2.339536 16.013195 42.390203
2009-08-05 15:17:12 51°15.233 2°53.984 21.4405 2.337572 15.992872 42.390203
2009-08-05 15:18:12 51°15.084 2°54.094 21.5229 2.341913 16.021216 42.425027
2009-08-05 15:19:13 51°14.911 2°54.185 21.6201 2.343153 16.025167 42.494675
2009-08-05 15:20:13 51°14.736 2°54.263 21.701 2.339226 15.990171 42.564323
2009-08-05 15:21:12 51°14.576 2°54.385 21.7632 2.340466 15.99472 42.599147
2009-08-05 15:22:12 51°14.48 2°54.6 21.8453 2.338605 15.975208 42.633971
2009-08-05 15:23:12 51°14.404 2°54.855 21.9198 2.340465 15.985276 42.703619
2009-08-05 15:24:12 51°14.322 2°55.104 22.024 2.341706 15.989528 42.738443
2009-08-05 15:25:12 51°14.218 2°55.313 22.0884 2.342222 15.988966 42.773267
2009-08-05 15:26:12 51°14.077 2°55.447 22.1603 2.341189 15.976535 42.808091
2009-08-05 15:27:12 51°13.942 2°55.542 22.223 2.343462 15.988207 42.877739
2009-08-05 15:28:12 51°13.849 2°55.611 22.2669 2.343669 15.985039 42.912564
2009-08-05 15:29:13 51°13.771 2°55.686 22.2976 2.342739 15.97251 42.947388
2009-08-05 15:30:12 51°13.723 2°55.773 22.3226 2.344185 15.978009 42.982212
2009-08-05 15:31:13 51°13.687 2°55.869 22.3849 2.344185 15.972132 43.017036
2009-08-05 15:32:12 51°13.667 2°55.944 22.4749 2.346149 15.980892 43.05186
2009-08-05 15:33:12 51°13.662 2°55.956 22.5909 2.347182 15.983599 43.086684